Time;durP1;ratioP1;P1;durP2;ratioP2;P2;SDS_P1;SDS_P2;PMS_P1;PMS_P2;Temp;Humidity;BMP_temperature;BMP_pressure;BME280_temperature;BME280_humidity;BME280_pressure;Samples;Min_cycle;Max_cycle;Signal;HPM_P1;HPM_P2
2023/01/09 00:01:29;;;;;;;;;;;;;;;3.82;86.24;99639.78;105407;1287;58766;-80
2023/01/09 00:03:55;;;;;;;;;;;;;;;3.79;86.17;99636.73;105473;1287;72768;-80
2023/01/09 00:06:20;;;;;;;;;;;;;;;3.74;86.14;99639.48;105636;1287;59352;-80
2023/01/09 00:08:46;;;;;;;;;;;;;;;3.71;86.25;99640.00;105526;1286;59370;-80
2023/01/09 00:11:11;;;;;;;;;;;;;;;3.71;86.36;99640.85;105573;1287;58797;-80
2023/01/09 00:13:37;;;;;;;;;;;;;;;3.71;86.32;99638.13;105572;1292;58579;-80
2023/01/09 00:16:07;;;;;;;;;;;;;;;3.71;86.35;99633.17;104996;1290;60966;-79
2023/01/09 00:18:32;;;;;;;;;;;;;;;3.72;86.30;99634.71;104895;1287;185965;-79
2023/01/09 00:20:59;;;;;;;;;;;;;;;3.72;86.34;99635.23;105058;1287;60462;-79
2023/01/09 00:23:25;;;;;;;;;;;;;;;3.73;86.39;99637.09;106081;1289;58650;-79
2023/01/09 00:25:59;;;;;;;;;;;;;;;3.75;86.33;99638.45;106068;1287;58454;-80
2023/01/09 00:28:25;;;;;;;;;;;;;;;3.76;86.36;99638.95;106149;1290;58693;-80
2023/01/09 00:30:55;;;;;;;;;;;;;;;3.78;86.33;99636.22;106155;1287;58321;-80
2023/01/09 00:33:22;;;;;;;;;;;;;;;3.79;86.32;99636.39;106036;1287;73537;-80
2023/01/09 00:35:48;;;;;;;;;;;;;;;3.80;86.33;99627.17;106051;1287;70299;-80
2023/01/09 00:38:14;;;;;;;;;;;;;;;3.82;86.34;99624.61;106288;1287;58752;-80
2023/01/09 00:40:39;;;;;;;;;;;;;;;3.83;86.33;99619.48;106163;1286;58723;-80
2023/01/09 00:43:04;;;;;;;;;;;;;;;3.83;86.28;99621.71;106113;1286;58319;-81
2023/01/09 00:45:30;;;;;;;;;;;;;;;3.84;86.27;99623.41;106258;1287;58893;-81
2023/01/09 00:48:02;;;;;;;;;;;;;;;3.85;86.35;99625.63;106265;1288;58347;-80
2023/01/09 00:50:30;;;;;;;;;;;;;;;3.86;86.39;99621.52;106139;1287;58327;-80
2023/01/09 00:52:59;;;;;;;;;;;;;;;3.88;86.35;99619.46;106207;1287;59885;-81
2023/01/09 00:55:26;;;;;;;;;;;;;;;3.90;86.40;99618.77;106177;1292;74832;-81
2023/01/09 00:57:51;;;;;;;;;;;;;;;3.93;86.50;99618.08;106203;1287;68422;-82
2023/01/09 01:00:17;;;;;;;;;;;;;;;3.95;86.47;99613.98;106119;1287;58681;-81
2023/01/09 01:02:43;;;;;;;;;;;;;;;3.96;86.43;99609.54;106112;1287;58812;-81
2023/01/09 01:07:53;;;;;;;;;;;;;;;4.01;86.49;99607.80;106233;1290;72491;-81
2023/01/09 01:10:20;;;;;;;;;;;;;;;4.02;86.47;99603.20;106251;1286;58294;-80
2023/01/09 01:12:46;;;;;;;;;;;;;;;4.04;86.48;99601.99;106108;1287;57658;-80
2023/01/09 01:15:12;;;;;;;;;;;;;;;4.05;86.49;99608.64;106166;1288;58385;-80
2023/01/09 01:17:39;;;;;;;;;;;;;;;4.05;86.42;99601.98;106098;1288;58559;-81
2023/01/09 01:20:05;;;;;;;;;;;;;;;4.05;86.44;99603.35;106140;1287;58285;-81
2023/01/09 01:22:31;;;;;;;;;;;;;;;4.06;86.48;99600.11;106190;1290;58084;-81
2023/01/09 01:24:56;;;;;;;;;;;;;;;4.07;86.45;99598.23;106173;1288;58542;-80
2023/01/09 01:27:22;;;;;;;;;;;;;;;4.09;86.45;99599.06;87617;1288;5005030;-80
2023/01/09 01:29:48;;;;;;;;;;;;;;;4.11;86.45;99598.55;106198;1287;58314;-80
2023/01/09 01:32:13;;;;;;;;;;;;;;;4.12;86.53;99598.88;106062;1290;58230;-81
2023/01/09 01:34:39;;;;;;;;;;;;;;;4.14;86.51;99600.91;106293;1287;58579;-81
2023/01/09 01:37:04;;;;;;;;;;;;;;;4.16;86.48;99597.99;106304;1286;58333;-81
2023/01/09 01:39:30;;;;;;;;;;;;;;;4.15;86.48;99600.39;106126;1287;58691;-81
2023/01/09 01:41:55;;;;;;;;;;;;;;;4.16;86.49;99601.75;106223;1288;58852;-81
2023/01/09 01:44:39;;;;;;;;;;;;;;;4.17;86.50;99607.85;106246;1286;58282;-82
2023/01/09 01:47:05;;;;;;;;;;;;;;;4.17;86.49;99609.73;106254;1286;58902;-81
2023/01/09 01:49:30;;;;;;;;;;;;;;;4.16;86.44;99605.84;106210;1287;58079;-81
2023/01/09 01:51:56;;;;;;;;;;;;;;;4.16;86.62;99600.38;106184;1287;58197;-81
2023/01/09 01:54:23;;;;;;;;;;;;;;;4.16;86.48;99596.27;106265;1286;58371;-81
2023/01/09 01:56:52;;;;;;;;;;;;;;;4.16;86.52;99594.39;105965;1291;59267;-81
2023/01/09 01:59:22;;;;;;;;;;;;;;;4.15;86.46;99587.59;105447;1286;60406;-81
2023/01/09 02:01:49;;;;;;;;;;;;;;;4.13;86.41;99579.94;105446;1287;60020;-81
2023/01/09 02:04:15;;;;;;;;;;;;;;;4.13;86.47;99575.52;105432;1287;74402;-81
2023/01/09 02:06:41;;;;;;;;;;;;;;;4.13;86.44;99572.77;105407;1289;58645;-81
2023/01/09 02:09:07;;;;;;;;;;;;;;;4.12;86.45;99570.57;105382;1287;60468;-81
2023/01/09 02:11:33;;;;;;;;;;;;;;;4.10;86.55;99564.95;105469;1288;60480;-81
2023/01/09 02:14:00;;;;;;;;;;;;;;;4.11;86.50;99565.63;105499;1289;60481;-81
2023/01/09 02:16:37;;;;;;;;;;;;;;;4.11;86.51;99561.02;105406;1287;60317;-81
2023/01/09 02:19:10;;;;;;;;;;;;;;;4.10;86.50;99555.91;105391;1292;68508;-81
2023/01/09 02:21:51;;;;;;;;;;;;;;;4.08;86.46;99551.84;105370;1287;72418;-81
2023/01/09 02:24:39;;;;;;;;;;;;;;;4.06;86.45;99547.59;105413;1287;59587;-81
2023/01/09 02:27:22;;;;;;;;;;;;;;;4.06;86.49;99550.14;105488;1289;59610;-81
2023/01/09 02:30:06;;;;;;;;;;;;;;;4.04;86.43;99549.81;105394;1287;74822;-81
2023/01/09 02:32:39;;;;;;;;;;;;;;;4.00;86.49;99547.11;105516;1287;67604;-81
2023/01/09 02:35:23;;;;;;;;;;;;;;;3.99;86.48;99544.91;105490;1290;72345;-81
2023/01/09 02:38:07;;;;;;;;;;;;;;;3.98;86.58;99545.92;105454;1290;59121;-80
2023/01/09 02:40:40;;;;;;;;;;;;;;;3.98;86.51;99546.78;105590;1287;60604;-80
2023/01/09 02:43:06;;;;;;;;;;;;;;;3.97;86.48;99542.19;105462;1287;73591;-80
2023/01/09 02:45:31;;;;;;;;;;;;;;;3.95;86.48;99540.66;105408;1287;59278;-80
2023/01/09 02:47:57;;;;;;;;;;;;;;;3.92;86.43;99541.02;105230;1289;245029;-80
2023/01/09 02:50:30;;;;;;;;;;;;;;;3.90;86.41;99539.16;105476;1287;60424;-80
2023/01/09 02:52:56;;;;;;;;;;;;;;;3.86;86.42;99536.79;105461;1287;59784;-80
2023/01/09 02:55:41;;;;;;;;;;;;;;;3.83;86.42;99535.45;105526;1289;60976;-80
2023/01/09 02:58:33;;;;;;;;;;;;;;;3.83;86.49;99535.29;105404;1287;68386;-81
2023/01/09 03:01:21;;;;;;;;;;;;;;;3.83;86.56;99534.42;105132;1292;72239;-80
2023/01/09 03:03:50;;;;;;;;;;;;;;;3.84;86.57;99534.77;104855;1297;58765;-82
2023/01/09 03:06:35;;;;;;;;;;;;;;;3.84;86.47;99530.84;104654;1297;58821;-82
2023/01/09 03:09:05;;;;;;;;;;;;;;;3.82;86.54;99526.26;104507;1301;73865;-82
2023/01/09 03:11:35;;;;;;;;;;;;;;;3.83;86.55;99529.15;104429;1303;68614;-82
2023/01/09 03:14:04;;;;;;;;;;;;;;;3.84;86.67;99529.65;104472;1306;72167;-82
2023/01/09 03:16:34;;;;;;;;;;;;;;;3.85;86.51;99529.82;104453;1303;59245;-82
2023/01/09 03:19:03;;;;;;;;;;;;;;;3.84;86.47;99527.10;104375;1300;59709;-82
2023/01/09 03:21:29;;;;;;;;;;;;;;;3.84;86.51;99528.45;104407;1301;73715;-82
2023/01/09 03:23:56;;;;;;;;;;;;;;;3.83;86.49;99527.77;104426;1301;60528;-82
2023/01/09 03:26:23;;;;;;;;;;;;;;;3.84;86.54;99525.56;104402;1304;73056;-82
2023/01/09 03:28:48;;;;;;;;;;;;;;;3.83;86.49;99525.74;104406;1302;58338;-82
2023/01/09 03:31:14;;;;;;;;;;;;;;;3.83;86.52;99528.80;104414;1304;60474;-82
2023/01/09 03:33:40;;;;;;;;;;;;;;;3.84;86.58;99525.40;104315;1304;60515;-82
2023/01/09 03:36:06;;;;;;;;;;;;;;;3.85;86.55;99520.10;104418;1301;59902;-82
2023/01/09 03:38:32;;;;;;;;;;;;;;;3.85;86.53;99520.61;104492;1300;59177;-82
2023/01/09 03:40:58;;;;;;;;;;;;;;;3.86;86.60;99518.04;104678;1293;58277;-82
2023/01/09 03:43:23;;;;;;;;;;;;;;;3.88;86.61;99513.10;105011;1293;59399;-82
2023/01/09 03:45:49;;;;;;;;;;;;;;;3.89;86.56;99511.55;105142;1290;59297;-82
2023/01/09 03:48:14;;;;;;;;;;;;;;;3.89;86.53;99510.19;106103;1289;58281;-82
2023/01/09 03:50:44;;;;;;;;;;;;;;;3.90;86.59;99507.63;106317;1286;58519;-81
2023/01/09 03:53:13;;;;;;;;;;;;;;;3.91;86.57;99506.94;105550;1289;60578;-80
2023/01/09 03:55:39;;;;;;;;;;;;;;;3.92;86.52;99504.20;105437;1289;74604;-80
2023/01/09 03:58:04;;;;;;;;;;;;;;;3.92;86.54;99507.10;105430;1288;58542;-81
2023/01/09 04:00:30;;;;;;;;;;;;;;;3.91;86.49;99510.00;105520;1290;60452;-80
2023/01/09 04:02:56;;;;;;;;;;;;;;;3.90;86.54;99509.33;105425;1292;58724;-80
2023/01/09 04:05:21;;;;;;;;;;;;;;;3.91;86.52;99506.94;105526;1287;59088;-80
2023/01/09 04:07:47;;;;;;;;;;;;;;;3.91;86.60;99505.74;105548;1287;59562;-80
2023/01/09 04:10:12;;;;;;;;;;;;;;;3.91;86.60;99505.57;105462;1292;74775;-80
2023/01/09 04:12:38;;;;;;;;;;;;;;;3.91;86.53;99497.90;105473;1288;60602;-80
2023/01/09 04:15:03;;;;;;;;;;;;;;;3.90;86.52;99497.73;105581;1287;59113;-81
2023/01/09 04:17:29;;;;;;;;;;;;;;;3.89;86.50;99495.53;105441;1287;59723;-80
2023/01/09 04:19:54;;;;;;;;;;;;;;;3.88;86.54;99498.27;105565;1287;58601;-80
2023/01/09 04:22:19;;;;;;;;;;;;;;;3.87;86.56;99499.46;105449;1287;60306;-81
2023/01/09 04:24:45;;;;;;;;;;;;;;;3.86;86.53;99504.41;105418;1290;60462;-81
2023/01/09 04:27:11;;;;;;;;;;;;;;;3.85;86.47;99506.46;105402;1285;60643;-81
2023/01/09 04:29:37;;;;;;;;;;;;;;;3.83;86.55;99505.11;105507;1287;60622;-80
2023/01/09 04:32:02;;;;;;;;;;;;;;;3.80;86.43;99501.89;98159;1287;10002644;-80
2023/01/09 04:34:28;;;;;;;;;;;;;;;3.78;86.49;99501.73;105488;1287;60439;-80
2023/01/09 04:36:54;;;;;;;;;;;;;;;3.76;86.49;99501.75;105437;1287;59291;-81
2023/01/09 04:39:20;;;;;;;;;;;;;;;3.75;86.49;99505.00;105420;1287;60519;-81
2023/01/09 04:41:48;;;;;;;;;;;;;;;3.75;86.48;99506.88;105443;1290;58767;-80
2023/01/09 04:44:15;;;;;;;;;;;;;;;3.76;86.53;99508.05;105364;1287;61487;-81
2023/01/09 04:46:40;;;;;;;;;;;;;;;3.76;86.54;99508.05;105406;1290;60340;-81
2023/01/09 04:49:06;;;;;;;;;;;;;;;3.76;86.55;99508.05;105474;1290;61387;-81
2023/01/09 04:51:31;;;;;;;;;;;;;;;3.76;86.49;99503.11;105400;1287;58562;-81
2023/01/09 04:53:56;;;;;;;;;;;;;;;3.75;86.51;99502.27;105476;1287;60513;-81
2023/01/09 04:56:22;;;;;;;;;;;;;;;3.74;86.52;99496.64;105467;1288;58289;-81
2023/01/09 04:58:47;;;;;;;;;;;;;;;3.73;86.51;99493.24;105447;1290;58577;-81
2023/01/09 05:01:13;;;;;;;;;;;;;;;3.73;86.52;99487.95;105472;1287;59370;-81
2023/01/09 05:03:38;;;;;;;;;;;;;;;3.72;86.54;99479.61;105447;1287;60547;-81
2023/01/09 05:06:04;;;;;;;;;;;;;;;3.72;86.58;99477.40;106119;1286;58632;-81
2023/01/09 05:08:29;;;;;;;;;;;;;;;3.71;86.51;99472.13;105974;1290;58603;-81
2023/01/09 05:10:55;;;;;;;;;;;;;;;3.70;86.51;99471.11;106012;1290;58480;-81
2023/01/09 05:13:20;;;;;;;;;;;;;;;3.70;86.51;99463.44;105584;1289;59406;-81
2023/01/09 05:15:45;;;;;;;;;;;;;;;3.69;86.51;99449.30;105342;1290;59223;-80
2023/01/09 05:18:11;;;;;;;;;;;;;;;3.69;86.51;99448.80;105301;1290;61262;-80
2023/01/09 05:20:36;;;;;;;;;;;;;;;3.67;86.52;99440.45;105193;1291;71235;-80
2023/01/09 05:23:02;;;;;;;;;;;;;;;3.65;86.52;99432.63;105245;1291;58685;-81
2023/01/09 05:25:27;;;;;;;;;;;;;;;3.66;86.59;99430.75;105355;1289;59268;-80
2023/01/09 05:27:53;;;;;;;;;;;;;;;3.65;86.54;99428.70;105295;1290;58575;-82
2023/01/09 05:30:19;;;;;;;;;;;;;;;3.67;86.65;99424.27;105356;1290;60315;-76
2023/01/09 05:32:45;;;;;;;;;;;;;;;3.67;86.55;99424.77;104997;1290;58720;-78
2023/01/09 05:35:10;;;;;;;;;;;;;;;3.68;86.59;99421.35;104927;1289;60994;-78
2023/01/09 05:37:36;;;;;;;;;;;;;;;3.70;86.65;99414.88;104843;1290;60532;-78
2023/01/09 05:40:01;;;;;;;;;;;;;;;3.72;86.61;99410.77;105138;1287;309129;-78
2023/01/09 05:42:27;;;;;;;;;;;;;;;3.73;86.61;99407.86;106065;1287;59097;-78
2023/01/09 05:44:52;;;;;;;;;;;;;;;3.74;86.52;99408.02;106118;1287;58846;-79
2023/01/09 05:47:17;;;;;;;;;;;;;;;3.74;86.52;99403.41;106077;1287;72685;-79
2023/01/09 05:49:43;;;;;;;;;;;;;;;3.75;86.57;99400.52;106081;1287;58726;-77
2023/01/09 05:52:09;;;;;;;;;;;;;;;3.77;86.53;99404.76;106127;1286;58274;-79
2023/01/09 05:54:34;;;;;;;;;;;;;;;3.77;86.52;99403.74;106023;1289;58507;-78
2023/01/09 05:57:00;;;;;;;;;;;;;;;3.77;86.46;99405.61;106171;1287;58796;-79
2023/01/09 05:59:25;;;;;;;;;;;;;;;3.77;86.45;99404.77;106270;1287;58212;-79
2023/01/09 06:01:51;;;;;;;;;;;;;;;3.77;86.50;99400.33;106106;1289;58579;-79
2023/01/09 06:04:17;;;;;;;;;;;;;;;3.78;86.44;99403.90;106136;1290;58015;-79
2023/01/09 06:06:42;;;;;;;;;;;;;;;3.74;86.40;99405.12;106115;1287;58433;-79
2023/01/09 06:09:08;;;;;;;;;;;;;;;3.72;86.35;99408.21;106097;1287;58662;-79
2023/01/09 06:11:34;;;;;;;;;;;;;;;3.70;86.40;99399.19;106038;1291;58395;-79
2023/01/09 06:14:00;;;;;;;;;;;;;;;3.68;86.37;99393.58;106106;1287;58320;-79
2023/01/09 06:16:26;;;;;;;;;;;;;;;3.65;86.41;99390.02;106075;1290;58858;-78
2023/01/09 06:18:51;;;;;;;;;;;;;;;3.68;86.48;99392.05;105975;1289;58556;-79
2023/01/09 06:21:16;;;;;;;;;;;;;;;3.68;86.46;99391.36;106090;1287;58919;-79
2023/01/09 06:23:42;;;;;;;;;;;;;;;3.67;86.38;99392.23;106048;1287;58242;-79
2023/01/09 06:26:08;;;;;;;;;;;;;;;3.66;86.32;99389.17;106052;1287;60065;-79
2023/01/09 06:28:33;;;;;;;;;;;;;;;3.65;86.43;99387.13;106069;1287;58378;-79
2023/01/09 06:30:59;;;;;;;;;;;;;;;3.65;86.44;99387.64;106140;1286;58360;-79
2023/01/09 06:33:24;;;;;;;;;;;;;;;3.65;86.39;99388.48;106031;1293;58336;-79
2023/01/09 06:35:49;;;;;;;;;;;;;;;3.62;86.34;99391.77;106102;1289;58246;-79
2023/01/09 06:38:15;;;;;;;;;;;;;;;3.60;86.33;99388.73;106133;1286;74642;-79
2023/01/09 06:40:40;;;;;;;;;;;;;;;3.57;86.36;99384.33;106137;1287;58061;-79
2023/01/09 06:43:06;;;;;;;;;;;;;;;3.54;86.33;99382.98;105990;1287;58247;-79
2023/01/09 06:45:31;;;;;;;;;;;;;;;3.51;86.34;99380.80;106145;1287;58506;-79
2023/01/09 06:47:57;;;;;;;;;;;;;;;3.45;86.35;99377.26;106216;1287;58327;-79
2023/01/09 06:50:23;;;;;;;;;;;;;;;3.42;86.38;99374.20;105944;1289;68474;-79
2023/01/09 06:52:48;;;;;;;;;;;;;;;3.41;86.40;99380.17;106129;1287;58185;-78
2023/01/09 06:55:16;;;;;;;;;;;;;;;3.38;86.29;99380.38;105935;1292;58260;-79
2023/01/09 06:57:42;;;;;;;;;;;;;;;3.33;86.25;99384.48;106017;1287;58025;-79
2023/01/09 07:00:08;;;;;;;;;;;;;;;3.32;86.36;99381.94;105958;1288;58708;-79
2023/01/09 07:02:33;;;;;;;;;;;;;;;3.29;86.27;99375.65;105929;1290;58501;-79
2023/01/09 07:04:59;;;;;;;;;;;;;;;3.28;86.41;99378.05;106016;1287;58349;-79
2023/01/09 07:07:25;;;;;;;;;;;;;;;3.30;86.48;99376.67;105955;1287;59002;-79
2023/01/09 07:09:50;;;;;;;;;;;;;;;3.34;86.53;99380.39;106106;1287;72708;-78
2023/01/09 07:12:16;;;;;;;;;;;;;;;3.36;86.45;99381.06;106005;1287;58560;-78
2023/01/09 07:14:42;;;;;;;;;;;;;;;3.37;86.47;99381.74;105944;1289;58777;-78
2023/01/09 07:17:09;;;;;;;;;;;;;;;3.39;86.43;99378.83;105979;1290;58574;-79
2023/01/09 07:19:35;;;;;;;;;;;;;;;3.40;86.38;99379.85;106076;1290;58528;-79
2023/01/09 07:22:00;;;;;;;;;;;;;;;3.39;86.36;99386.84;106135;1287;58604;-79
2023/01/09 07:24:26;;;;;;;;;;;;;;;3.39;86.35;99388.88;106012;1287;58929;-79
2023/01/09 07:26:51;;;;;;;;;;;;;;;3.39;86.36;99394.50;105889;1287;58693;-79
2023/01/09 07:29:17;;;;;;;;;;;;;;;3.39;86.46;99391.43;106074;1287;58237;-79
2023/01/09 07:31:42;;;;;;;;;;;;;;;3.41;86.41;99389.54;105998;1291;58501;-79
2023/01/09 07:34:07;;;;;;;;;;;;;;;3.42;86.39;99390.90;105996;1287;58738;-78
2023/01/09 07:36:33;;;;;;;;;;;;;;;3.44;86.34;99393.45;106046;1288;58649;-79
2023/01/09 07:38:58;;;;;;;;;;;;;;;3.43;86.32;99388.00;105971;1292;58303;-79
2023/01/09 07:41:24;;;;;;;;;;;;;;;3.44;86.41;99387.48;105939;1287;58589;-79
2023/01/09 07:43:49;;;;;;;;;;;;;;;3.45;86.37;99383.39;105993;1288;58606;-79
2023/01/09 07:46:14;;;;;;;;;;;;;;;3.45;86.32;99380.84;105951;1288;58671;-79
2023/01/09 07:48:41;;;;;;;;;;;;;;;3.42;86.29;99373.02;106130;1290;58124;-79
2023/01/09 07:51:06;;;;;;;;;;;;;;;3.40;86.25;99368.77;106143;1287;58651;-79
2023/01/09 07:53:32;;;;;;;;;;;;;;;3.39;86.28;99372.17;105958;1290;69067;-79
2023/01/09 07:55:57;;;;;;;;;;;;;;;3.37;86.35;99374.24;105631;1292;57816;-78
2023/01/09 07:58:23;;;;;;;;;;;;;;;3.35;86.30;99375.79;105056;1289;58341;-79
2023/01/09 08:00:49;;;;;;;;;;;;;;;3.34;86.35;99378.35;105114;1289;58883;-78
2023/01/09 08:03:14;;;;;;;;;;;;;;;3.34;86.48;99372.05;105145;1292;58923;-78
2023/01/09 08:05:40;;;;;;;;;;;;;;;3.36;86.43;99367.61;105078;1289;60458;-80
2023/01/09 08:08:06;;;;;;;;;;;;;;;3.37;86.51;99362.31;105242;1291;59267;-78
2023/01/09 08:10:32;;;;;;;;;;;;;;;3.40;86.54;99358.05;105250;1287;60461;-79
2023/01/09 08:12:57;;;;;;;;;;;;;;;3.41;86.46;99360.59;105170;1288;60587;-79
2023/01/09 08:15:23;;;;;;;;;;;;;;;3.41;86.49;99358.02;105100;1292;59223;-78
2023/01/09 08:17:48;;;;;;;;;;;;;;;3.41;86.44;99360.08;105179;1290;60462;-79
2023/01/09 08:20:14;;;;;;;;;;;;;;;3.43;86.59;99359.55;105215;1287;58933;-78
2023/01/09 08:22:41;;;;;;;;;;;;;;;3.49;86.62;99366.16;105110;1289;73645;-78
2023/01/09 08:25:08;;;;;;;;;;;;;;;3.53;86.56;99371.07;105127;1290;68671;-78
2023/01/09 08:27:33;;;;;;;;;;;;;;;3.57;86.68;99371.89;106039;1290;58564;-79
2023/01/09 08:29:59;;;;;;;;;;;;;;;3.61;86.64;99373.22;106029;1291;58420;-79
2023/01/09 08:32:25;;;;;;;;;;;;;;;3.63;86.60;99371.49;106150;1287;58625;-79
2023/01/09 08:34:51;;;;;;;;;;;;;;;3.65;86.50;99372.30;106112;1289;58304;-79
2023/01/09 08:37:16;;;;;;;;;;;;;;;3.67;86.56;99370.58;106051;1288;58688;-79
2023/01/09 08:39:42;;;;;;;;;;;;;;;3.70;86.50;99373.13;106327;1287;58557;-79
2023/01/09 08:47:35;;;;;;;;;;;;;;;3.70;86.40;99374.48;106068;1287;67830;-78
2023/01/09 08:50:02;;;;;;;;;;;;;;;3.71;86.51;99371.58;106130;1292;58316;-78
2023/01/09 08:52:29;;;;;;;;;;;;;;;3.72;86.46;99368.84;106151;1288;58738;-79
2023/01/09 08:54:55;;;;;;;;;;;;;;;3.72;86.47;99372.92;106177;1287;58597;-79
2023/01/09 08:57:20;;;;;;;;;;;;;;;3.73;86.45;99371.89;106062;1288;58093;-79
2023/01/09 08:59:46;;;;;;;;;;;;;;;3.74;86.48;99372.40;106047;1290;58720;-79
2023/01/09 09:02:12;;;;;;;;;;;;;;;3.77;86.51;99372.71;106021;1289;58987;-79
2023/01/09 09:04:37;;;;;;;;;;;;;;;3.79;86.52;99378.49;105986;1287;58588;-79
2023/01/09 09:07:03;;;;;;;;;;;;;;;3.82;86.55;99382.22;106123;1287;58573;-79
2023/01/09 09:09:28;;;;;;;;;;;;;;;3.83;86.56;99379.65;106089;1288;58769;-78
2023/01/09 09:11:54;;;;;;;;;;;;;;;3.83;86.46;99380.17;106055;1288;58422;-79
2023/01/09 09:17:03;;;;;;;;;;;;;;;3.80;86.45;99375.41;106059;1292;60145;-79
2023/01/09 09:19:29;;;;;;;;;;;;;;;3.81;86.51;99373.54;106029;1287;58022;-79
2023/01/09 09:21:55;;;;;;;;;;;;;;;3.83;86.54;99370.79;106018;1287;58679;-78
2023/01/09 09:24:20;;;;;;;;;;;;;;;3.82;86.47;99364.99;106108;1291;58511;-78
2023/01/09 09:26:46;;;;;;;;;;;;;;;3.81;86.50;99367.40;106146;1290;58205;-79
2023/01/09 09:29:11;;;;;;;;;;;;;;;3.84;86.58;99366.69;106203;1287;58232;-78
2023/01/09 09:31:39;;;;;;;;;;;;;;;3.88;86.66;99367.17;106128;1288;58765;-79
2023/01/09 09:34:05;;;;;;;;;;;;;;;3.88;86.68;99361.71;105995;1287;72828;-79
2023/01/09 09:36:32;;;;;;;;;;;;;;;3.86;86.52;99358.31;106066;1287;58519;-79
2023/01/09 09:38:57;;;;;;;;;;;;;;;3.87;86.57;99352.86;106034;1289;58663;-79
2023/01/09 09:44:53;;;;;;;;;;;;;;;3.91;86.69;99344.80;105340;1294;67357;-78
2023/01/09 09:47:40;;;;;;;;;;;;;;;3.93;86.67;99341.38;104582;1292;88240;-78
2023/01/09 09:50:09;;;;;;;;;;;;;;;3.95;86.76;99334.88;104640;1294;60462;-78
2023/01/09 09:52:56;;;;;;;;;;;;;;;3.97;86.75;99334.17;104665;1293;61296;-78
2023/01/09 09:55:29;;;;;;;;;;;;;;;3.96;86.69;99336.23;104463;1299;73456;-78
2023/01/09 09:57:55;;;;;;;;;;;;;;;3.96;86.77;99330.45;104453;1300;68410;-78
2023/01/09 10:00:22;;;;;;;;;;;;;;;3.96;86.80;99329.75;104427;1295;58639;-78
2023/01/09 10:02:55;;;;;;;;;;;;;;;3.98;86.78;99327.86;104346;1297;60037;-78
2023/01/09 10:05:26;;;;;;;;;;;;;;;4.00;86.84;99324.44;104315;1297;60064;-78
2023/01/09 10:07:52;;;;;;;;;;;;;;;4.01;86.84;99321.19;104314;1299;74896;-78
2023/01/09 10:10:47;;;;;;;;;;;;;;;4.02;86.83;99319.30;104215;1301;59300;-78
2023/01/09 10:16:13;;;;;;;;;;;;;;;4.02;86.92;99314.36;103950;1304;60538;-78
2023/01/09 10:18:51;;;;;;;;;;;;;;;4.04;86.89;99318.42;103966;1304;60398;-78
2023/01/09 10:21:35;;;;;;;;;;;;;;;4.05;86.97;99319.45;103958;1303;72762;-78
2023/01/09 10:24:11;;;;;;;;;;;;;;;4.07;87.00;99329.30;103964;1303;67111;-78
2023/01/09 10:26:42;;;;;;;;;;;;;;;4.09;86.93;99342.08;104005;1302;72616;-79
2023/01/09 10:29:45;;;;;;;;;;;;;;;4.09;86.96;99336.96;103973;1305;59467;-79
2023/01/09 10:32:24;;;;;;;;;;;;;;;4.11;87.07;99337.28;103927;1300;60898;-78
2023/01/09 10:35:08;;;;;;;;;;;;;;;4.13;87.01;99335.21;104247;1300;73394;-79
2023/01/09 10:37:37;;;;;;;;;;;;;;;4.14;87.02;99335.88;104336;1297;68588;-78
2023/01/09 10:40:13;;;;;;;;;;;;;;;4.15;86.95;99335.35;104141;1300;73634;-78
2023/01/09 10:43:11;;;;;;;;;;;;;;;4.12;86.87;99336.93;104170;1298;60533;-79
2023/01/09 10:45:43;;;;;;;;;;;;;;;4.11;86.93;99337.80;103898;1299;59812;-78
2023/01/09 10:48:35;;;;;;;;;;;;;;;4.11;87.00;99337.80;104288;1299;74831;-79
2023/01/09 10:51:02;;;;;;;;;;;;;;;4.12;87.02;99337.10;104664;1295;68713;-79
2023/01/09 10:53:39;;;;;;;;;;;;;;;4.12;87.04;99334.37;104725;1293;72384;-79
2023/01/09 10:56:21;;;;;;;;;;;;;;;4.13;87.02;99332.31;104718;1297;60383;-78
2023/01/09 10:58:46;;;;;;;;;;;;;;;4.12;87.04;99327.20;97367;1292;10003059;-78
2023/01/09 11:01:19;;;;;;;;;;;;;;;4.13;87.02;99320.38;104743;1297;60417;-79
2023/01/09 11:03:44;;;;;;;;;;;;;;;4.13;87.02;99324.64;104981;1287;60320;-78
2023/01/09 11:06:30;;;;;;;;;;;;;;;4.12;87.05;99320.05;105072;1288;60631;-78
2023/01/09 11:08:58;;;;;;;;;;;;;;;4.14;87.07;99317.81;105169;1288;73395;-79
2023/01/09 11:11:31;;;;;;;;;;;;;;;4.16;87.11;99317.77;105013;1292;68623;-78
2023/01/09 11:14:29;;;;;;;;;;;;;;;4.16;87.03;99317.60;105065;1288;71553;-78
2023/01/09 11:16:57;;;;;;;;;;;;;;;4.16;87.00;99313.17;105992;1291;58637;-79
2023/01/09 11:19:23;;;;;;;;;;;;;;;4.16;87.04;99312.82;106097;1289;58291;-78
2023/01/09 11:21:49;;;;;;;;;;;;;;;4.18;87.06;99310.23;105998;1290;58354;-79
2023/01/09 11:24:37;;;;;;;;;;;;;;;4.20;87.05;99310.90;105544;1287;60455;-78
2023/01/09 11:27:32;;;;;;;;;;;;;;;4.22;87.15;99311.20;104759;1292;72494;-78
2023/01/09 11:30:16;;;;;;;;;;;;;;;4.24;87.11;99309.98;104983;1302;182222;-79
2023/01/09 11:32:44;;;;;;;;;;;;;;;4.28;87.19;99306.71;105273;1299;58894;-79
2023/01/09 11:35:27;;;;;;;;;;;;;;;4.31;87.12;99306.67;104334;1301;74713;-79
2023/01/09 11:37:59;;;;;;;;;;;;;;;4.31;87.09;99309.23;104213;1306;69522;-79
2023/01/09 11:40:25;;;;;;;;;;;;;;;4.32;87.06;99306.99;104164;1299;72516;-79
2023/01/09 11:43:08;;;;;;;;;;;;;;;4.33;87.11;99307.84;105065;1300;58764;-79
2023/01/09 11:45:40;;;;;;;;;;;;;;;4.35;87.06;99307.14;105125;1302;61031;-79
2023/01/09 11:48:15;;;;;;;;;;;;;;;4.38;87.14;99307.61;105166;1300;74875;-80
2023/01/09 11:50:51;;;;;;;;;;;;;;;4.38;87.10;99304.54;105145;1297;69288;-79
2023/01/09 11:53:18;;;;;;;;;;;;;;;4.40;87.11;99302.30;105191;1299;73652;-79
2023/01/09 11:55:44;;;;;;;;;;;;;;;4.42;87.17;99299.55;105192;1300;59887;-79
2023/01/09 11:58:15;;;;;;;;;;;;;;;4.45;87.15;99300.70;105180;1299;58335;-79
2023/01/09 12:00:57;;;;;;;;;;;;;;;4.46;87.16;99301.03;105169;1299;73669;-79
2023/01/09 12:03:29;;;;;;;;;;;;;;;4.50;87.21;99299.96;105201;1299;68597;-79
2023/01/09 12:06:02;;;;;;;;;;;;;;;4.52;87.17;99300.45;105598;1296;72948;-79
2023/01/09 12:09:00;;;;;;;;;;;;;;;4.55;87.23;99297.17;105774;1292;58485;-79
2023/01/09 12:11:35;;;;;;;;;;;;;;;4.58;87.15;99294.90;105619;1293;60357;-79
2023/01/09 12:14:01;;;;;;;;;;;;;;;4.58;87.04;99293.38;105623;1294;73260;-79
2023/01/09 12:16:33;;;;;;;;;;;;;;;4.58;87.15;99289.95;105606;1296;58512;-79
2023/01/09 12:19:21;;;;;;;;;;;;;;;4.61;87.19;99285.82;105587;1298;72436;-79
2023/01/09 12:22:11;;;;;;;;;;;;;;;4.63;87.12;99277.44;104974;1299;276497;-82
2023/01/09 12:24:52;;;;;;;;;;;;;;;4.64;87.17;99277.26;105038;1300;60128;-79
2023/01/09 12:27:40;;;;;;;;;;;;;;;4.67;87.22;99273.45;104393;1299;74883;-82
2023/01/09 12:30:25;;;;;;;;;;;;;;;4.66;87.13;99271.59;104169;1308;68471;-81
2023/01/09 12:33:20;;;;;;;;;;;;;;;4.65;87.22;99268.36;104044;1309;73441;-78
2023/01/09 12:35:50;;;;;;;;;;;;;;;4.68;87.29;99268.64;103726;1310;59629;-83
2023/01/09 12:38:45;;;;;;;;;;;;;;;4.72;87.34;99266.70;103610;1311;60450;-83
2023/01/09 12:41:31;;;;;;;;;;;;;;;4.74;87.30;99266.33;103162;1314;72884;-82
2023/01/09 12:44:21;;;;;;;;;;;;;;;4.77;87.33;99266.30;103271;1320;69613;-82
2023/01/09 12:47:10;;;;;;;;;;;;;;;4.81;87.39;99266.23;103308;1318;73387;-82
2023/01/09 12:49:41;;;;;;;;;;;;;;;4.84;87.35;99262.26;103211;1313;60361;-83
2023/01/09 12:52:16;;;;;;;;;;;;;;;4.88;87.35;99265.62;103317;1312;60970;-82
2023/01/09 12:54:45;;;;;;;;;;;;;;;4.91;87.32;99260.79;103298;1313;75155;-82
2023/01/09 12:57:37;;;;;;;;;;;;;;;4.93;87.34;99263.50;103386;1314;68351;-82
2023/01/09 13:00:14;;;;;;;;;;;;;;;4.93;87.25;99256.83;103295;1318;74028;-82
2023/01/09 13:02:57;;;;;;;;;;;;;;;4.96;87.31;99258.33;103295;1319;60183;-82
2023/01/09 13:05:30;;;;;;;;;;;;;;;4.98;87.29;99254.02;103398;1317;61315;-82
2023/01/09 13:07:59;;;;;;;;;;;;;;;5.01;87.29;99250.40;103621;1308;73499;-82
2023/01/09 13:10:29;;;;;;;;;;;;;;;5.03;87.27;99247.98;104105;1306;68921;-82
2023/01/09 13:12:57;;;;;;;;;;;;;;;5.04;87.33;99253.42;104278;1308;72354;-82
2023/01/09 13:15:49;;;;;;;;;;;;;;;5.06;87.33;99250.84;104342;1303;61185;-82